sensor_id;sensor_type;location;lat;lon;timestamp;P1;durP1;ratioP1;P2;durP2;ratioP2
61383;SDS011;63511;49.346;8.798;2022-10-31T00:02:20;15.85;;;5.78;;
61383;SDS011;63511;49.346;8.798;2022-10-31T00:04:45;21.35;;;5.80;;
61383;SDS011;63511;49.346;8.798;2022-10-31T00:07:11;24.85;;;6.30;;
61383;SDS011;63511;49.346;8.798;2022-10-31T00:09:38;16.85;;;8.95;;
61383;SDS011;63511;49.346;8.798;2022-10-31T00:12:04;19.48;;;6.20;;
61383;SDS011;63511;49.346;8.798;2022-10-31T00:14:32;11.07;;;5.35;;
61383;SDS011;63511;49.346;8.798;2022-10-31T00:16:57;15.43;;;6.43;;
61383;SDS011;63511;49.346;8.798;2022-10-31T00:19:23;19.77;;;6.00;;
61383;SDS011;63511;49.346;8.798;2022-10-31T00:21:48;12.20;;;5.78;;
61383;SDS011;63511;49.346;8.798;2022-10-31T00:24:16;28.35;;;6.40;;
61383;SDS011;63511;49.346;8.798;2022-10-31T00:26:42;17.40;;;5.53;;
61383;SDS011;63511;49.346;8.798;2022-10-31T00:29:09;8.90;;;4.78;;
61383;SDS011;63511;49.346;8.798;2022-10-31T00:31:35;11.60;;;5.13;;
61383;SDS011;63511;49.346;8.798;2022-10-31T00:34:02;7.50;;;4.97;;
61383;SDS011;63511;49.346;8.798;2022-10-31T00:36:28;12.52;;;5.50;;
61383;SDS011;63511;49.346;8.798;2022-10-31T00:38:53;12.18;;;5.40;;
61383;SDS011;63511;49.346;8.798;2022-10-31T00:41:28;13.65;;;4.95;;
61383;SDS011;63511;49.346;8.798;2022-10-31T00:43:54;12.65;;;4.72;;
61383;SDS011;63511;49.346;8.798;2022-10-31T00:46:24;7.63;;;4.72;;
61383;SDS011;63511;49.346;8.798;2022-10-31T00:48:52;15.63;;;4.93;;
61383;SDS011;63511;49.346;8.798;2022-10-31T00:51:19;18.65;;;5.40;;
61383;SDS011;63511;49.346;8.798;2022-10-31T00:53:45;46.25;;;7.63;;
61383;SDS011;63511;49.346;8.798;2022-10-31T00:56:10;77.97;;;9.23;;
61383;SDS011;63511;49.346;8.798;2022-10-31T00:58:35;93.82;;;9.52;;
61383;SDS011;63511;49.346;8.798;2022-10-31T01:01:01;47.28;;;7.68;;
61383;SDS011;63511;49.346;8.798;2022-10-31T01:03:28;25.73;;;6.55;;
61383;SDS011;63511;49.346;8.798;2022-10-31T01:05:56;17.13;;;5.25;;
61383;SDS011;63511;49.346;8.798;2022-10-31T01:08:22;13.55;;;5.40;;
61383;SDS011;63511;49.346;8.798;2022-10-31T01:10:57;19.08;;;6.78;;
61383;SDS011;63511;49.346;8.798;2022-10-31T01:13:36;12.73;;;5.53;;
61383;SDS011;63511;49.346;8.798;2022-10-31T01:16:05;12.32;;;5.10;;
61383;SDS011;63511;49.346;8.798;2022-10-31T01:18:32;12.48;;;4.88;;
61383;SDS011;63511;49.346;8.798;2022-10-31T01:21:04;12.00;;;5.57;;
61383;SDS011;63511;49.346;8.798;2022-10-31T01:23:34;13.82;;;4.45;;
61383;SDS011;63511;49.346;8.798;2022-10-31T01:26:01;168.20;;;68.75;;
61383;SDS011;63511;49.346;8.798;2022-10-31T01:28:30;127.65;;;49.58;;
61383;SDS011;63511;49.346;8.798;2022-10-31T01:30:59;79.78;;;34.25;;
61383;SDS011;63511;49.346;8.798;2022-10-31T01:33:26;78.63;;;25.55;;
61383;SDS011;63511;49.346;8.798;2022-10-31T01:35:51;45.53;;;18.77;;
61383;SDS011;63511;49.346;8.798;2022-10-31T01:38:16;24.48;;;9.40;;
61383;SDS011;63511;49.346;8.798;2022-10-31T01:40:41;31.92;;;9.88;;
61383;SDS011;63511;49.346;8.798;2022-10-31T01:43:10;24.70;;;8.82;;
61383;SDS011;63511;49.346;8.798;2022-10-31T01:45:40;17.30;;;7.03;;
61383;SDS011;63511;49.346;8.798;2022-10-31T01:48:10;40.97;;;13.15;;
61383;SDS011;63511;49.346;8.798;2022-10-31T01:50:38;17.05;;;8.90;;
61383;SDS011;63511;49.346;8.798;2022-10-31T01:53:04;28.13;;;8.52;;
61383;SDS011;63511;49.346;8.798;2022-10-31T01:55:37;12.82;;;5.05;;
61383;SDS011;63511;49.346;8.798;2022-10-31T01:58:07;14.48;;;4.93;;
61383;SDS011;63511;49.346;8.798;2022-10-31T02:00:37;11.52;;;4.53;;
61383;SDS011;63511;49.346;8.798;2022-10-31T02:03:06;14.70;;;5.28;;
61383;SDS011;63511;49.346;8.798;2022-10-31T02:05:31;15.52;;;5.40;;
61383;SDS011;63511;49.346;8.798;2022-10-31T02:11:01;16.73;;;7.75;;
61383;SDS011;63511;49.346;8.798;2022-10-31T02:13:29;25.40;;;7.15;;
61383;SDS011;63511;49.346;8.798;2022-10-31T02:15:56;12.45;;;5.65;;
61383;SDS011;63511;49.346;8.798;2022-10-31T02:18:23;25.75;;;8.73;;
61383;SDS011;63511;49.346;8.798;2022-10-31T02:35:10;9.63;;;5.47;;
61383;SDS011;63511;49.346;8.798;2022-10-31T02:40:39;11.23;;;5.63;;
61383;SDS011;63511;49.346;8.798;2022-10-31T02:43:27;20.90;;;4.88;;
61383;SDS011;63511;49.346;8.798;2022-10-31T02:48:59;34.05;;;6.88;;
61383;SDS011;63511;49.346;8.798;2022-10-31T02:51:48;13.60;;;5.35;;
61383;SDS011;63511;49.346;8.798;2022-10-31T02:54:21;17.10;;;5.63;;
61383;SDS011;63511;49.346;8.798;2022-10-31T02:56:52;8.70;;;5.00;;
61383;SDS011;63511;49.346;8.798;2022-10-31T02:59:26;16.30;;;5.80;;
61383;SDS011;63511;49.346;8.798;2022-10-31T03:04:46;11.43;;;5.38;;
61383;SDS011;63511;49.346;8.798;2022-10-31T03:07:24;16.27;;;5.35;;
61383;SDS011;63511;49.346;8.798;2022-10-31T03:10:00;15.57;;;5.32;;
61383;SDS011;63511;49.346;8.798;2022-10-31T03:12:39;12.77;;;5.28;;
61383;SDS011;63511;49.346;8.798;2022-10-31T03:20:22;35.80;;;6.53;;
61383;SDS011;63511;49.346;8.798;2022-10-31T03:22:55;41.05;;;8.40;;
61383;SDS011;63511;49.346;8.798;2022-10-31T03:25:25;21.70;;;5.30;;
61383;SDS011;63511;49.346;8.798;2022-10-31T03:27:52;33.42;;;7.18;;
61383;SDS011;63511;49.346;8.798;2022-10-31T03:30:18;21.58;;;6.60;;
61383;SDS011;63511;49.346;8.798;2022-10-31T03:32:46;15.80;;;5.55;;
61383;SDS011;63511;49.346;8.798;2022-10-31T03:35:15;13.57;;;5.13;;
61383;SDS011;63511;49.346;8.798;2022-10-31T03:37:46;18.48;;;6.15;;
61383;SDS011;63511;49.346;8.798;2022-10-31T03:40:18;13.70;;;5.18;;
61383;SDS011;63511;49.346;8.798;2022-10-31T03:42:48;22.83;;;6.25;;
61383;SDS011;63511;49.346;8.798;2022-10-31T03:45:40;11.55;;;4.95;;
61383;SDS011;63511;49.346;8.798;2022-10-31T03:48:12;13.45;;;5.25;;
61383;SDS011;63511;49.346;8.798;2022-10-31T03:50:41;10.80;;;4.10;;
61383;SDS011;63511;49.346;8.798;2022-10-31T03:53:33;11.20;;;5.38;;
61383;SDS011;63511;49.346;8.798;2022-10-31T03:56:19;8.25;;;4.65;;
61383;SDS011;63511;49.346;8.798;2022-10-31T03:58:58;8.70;;;4.60;;
61383;SDS011;63511;49.346;8.798;2022-10-31T04:01:27;25.95;;;5.53;;
61383;SDS011;63511;49.346;8.798;2022-10-31T04:03:57;7.13;;;4.70;;
61383;SDS011;63511;49.346;8.798;2022-10-31T04:06:23;11.00;;;4.20;;
61383;SDS011;63511;49.346;8.798;2022-10-31T04:08:53;12.73;;;4.53;;
61383;SDS011;63511;49.346;8.798;2022-10-31T04:11:23;7.97;;;4.00;;
61383;SDS011;63511;49.346;8.798;2022-10-31T04:13:53;8.82;;;3.90;;
61383;SDS011;63511;49.346;8.798;2022-10-31T04:16:23;8.43;;;4.07;;
61383;SDS011;63511;49.346;8.798;2022-10-31T04:18:52;10.52;;;4.20;;
61383;SDS011;63511;49.346;8.798;2022-10-31T04:21:17;10.95;;;3.97;;
61383;SDS011;63511;49.346;8.798;2022-10-31T04:23:42;11.15;;;3.90;;
61383;SDS011;63511;49.346;8.798;2022-10-31T04:26:10;8.80;;;3.75;;
61383;SDS011;63511;49.346;8.798;2022-10-31T04:28:37;8.02;;;3.20;;
61383;SDS011;63511;49.346;8.798;2022-10-31T04:31:02;20.38;;;4.53;;
61383;SDS011;63511;49.346;8.798;2022-10-31T04:33:28;10.95;;;3.92;;
61383;SDS011;63511;49.346;8.798;2022-10-31T04:35:53;12.85;;;3.67;;
61383;SDS011;63511;49.346;8.798;2022-10-31T04:38:18;7.88;;;3.60;;
61383;SDS011;63511;49.346;8.798;2022-10-31T04:40:44;13.55;;;4.40;;
61383;SDS011;63511;49.346;8.798;2022-10-31T04:43:12;14.98;;;4.28;;
61383;SDS011;63511;49.346;8.798;2022-10-31T04:45:38;8.20;;;3.63;;
61383;SDS011;63511;49.346;8.798;2022-10-31T04:48:05;12.73;;;3.83;;
61383;SDS011;63511;49.346;8.798;2022-10-31T04:50:33;10.45;;;4.57;;
61383;SDS011;63511;49.346;8.798;2022-10-31T04:52:58;9.38;;;4.22;;
61383;SDS011;63511;49.346;8.798;2022-10-31T04:55:23;14.00;;;4.85;;
61383;SDS011;63511;49.346;8.798;2022-10-31T04:57:51;8.82;;;4.90;;
61383;SDS011;63511;49.346;8.798;2022-10-31T05:00:18;20.58;;;4.50;;
61383;SDS011;63511;49.346;8.798;2022-10-31T05:02:51;8.63;;;4.15;;
61383;SDS011;63511;49.346;8.798;2022-10-31T05:05:19;9.65;;;4.38;;
61383;SDS011;63511;49.346;8.798;2022-10-31T05:07:48;8.77;;;4.40;;
61383;SDS011;63511;49.346;8.798;2022-10-31T05:10:16;20.17;;;6.22;;
61383;SDS011;63511;49.346;8.798;2022-10-31T05:12:48;10.45;;;4.35;;
61383;SDS011;63511;49.346;8.798;2022-10-31T05:15:20;19.88;;;4.72;;
61383;SDS011;63511;49.346;8.798;2022-10-31T05:17:47;9.15;;;3.97;;
61383;SDS011;63511;49.346;8.798;2022-10-31T05:20:14;8.43;;;4.32;;
61383;SDS011;63511;49.346;8.798;2022-10-31T05:22:43;10.43;;;4.53;;
61383;SDS011;63511;49.346;8.798;2022-10-31T05:25:10;8.88;;;4.50;;
61383;SDS011;63511;49.346;8.798;2022-10-31T05:27:38;17.10;;;4.65;;
61383;SDS011;63511;49.346;8.798;2022-10-31T05:30:07;13.00;;;3.83;;
61383;SDS011;63511;49.346;8.798;2022-10-31T05:32:38;14.25;;;4.32;;
61383;SDS011;63511;49.346;8.798;2022-10-31T05:35:08;16.17;;;4.25;;
61383;SDS011;63511;49.346;8.798;2022-10-31T05:37:40;13.88;;;3.78;;
61383;SDS011;63511;49.346;8.798;2022-10-31T05:40:09;10.38;;;4.30;;
61383;SDS011;63511;49.346;8.798;2022-10-31T05:42:37;11.40;;;3.78;;
61383;SDS011;63511;49.346;8.798;2022-10-31T05:45:06;7.70;;;3.78;;
61383;SDS011;63511;49.346;8.798;2022-10-31T05:47:38;9.05;;;4.32;;
61383;SDS011;63511;49.346;8.798;2022-10-31T05:50:04;47.25;;;6.53;;
61383;SDS011;63511;49.346;8.798;2022-10-31T05:52:30;19.25;;;4.10;;
61383;SDS011;63511;49.346;8.798;2022-10-31T05:54:58;10.32;;;4.57;;
61383;SDS011;63511;49.346;8.798;2022-10-31T05:57:24;14.85;;;3.90;;
61383;SDS011;63511;49.346;8.798;2022-10-31T05:59:49;9.07;;;4.68;;
61383;SDS011;63511;49.346;8.798;2022-10-31T06:04:45;13.57;;;4.68;;
61383;SDS011;63511;49.346;8.798;2022-10-31T06:07:11;13.60;;;5.45;;
61383;SDS011;63511;49.346;8.798;2022-10-31T06:09:39;15.20;;;4.78;;
61383;SDS011;63511;49.346;8.798;2022-10-31T06:12:05;10.95;;;4.18;;
61383;SDS011;63511;49.346;8.798;2022-10-31T06:14:30;12.10;;;3.85;;
61383;SDS011;63511;49.346;8.798;2022-10-31T06:16:57;27.17;;;6.00;;
61383;SDS011;63511;49.346;8.798;2022-10-31T06:19:23;7.57;;;4.30;;
61383;SDS011;63511;49.346;8.798;2022-10-31T06:21:48;13.15;;;4.35;;
61383;SDS011;63511;49.346;8.798;2022-10-31T06:24:16;10.25;;;3.88;;
61383;SDS011;63511;49.346;8.798;2022-10-31T06:26:43;7.47;;;3.33;;
61383;SDS011;63511;49.346;8.798;2022-10-31T06:29:09;7.47;;;3.97;;
61383;SDS011;63511;49.346;8.798;2022-10-31T06:31:34;14.23;;;4.30;;
61383;SDS011;63511;49.346;8.798;2022-10-31T06:33:59;10.98;;;5.00;;
61383;SDS011;63511;49.346;8.798;2022-10-31T06:36:25;13.07;;;3.85;;
61383;SDS011;63511;49.346;8.798;2022-10-31T06:38:50;16.52;;;5.68;;
61383;SDS011;63511;49.346;8.798;2022-10-31T06:41:18;10.43;;;5.97;;
61383;SDS011;63511;49.346;8.798;2022-10-31T06:43:45;10.38;;;4.20;;
61383;SDS011;63511;49.346;8.798;2022-10-31T06:46:11;23.73;;;4.53;;
61383;SDS011;63511;49.346;8.798;2022-10-31T06:48:36;9.23;;;4.70;;
61383;SDS011;63511;49.346;8.798;2022-10-31T06:51:05;11.40;;;4.85;;
61383;SDS011;63511;49.346;8.798;2022-10-31T06:53:32;13.15;;;4.25;;
61383;SDS011;63511;49.346;8.798;2022-10-31T06:56:00;8.65;;;4.53;;
61383;SDS011;63511;49.346;8.798;2022-10-31T06:58:25;12.00;;;4.63;;
61383;SDS011;63511;49.346;8.798;2022-10-31T07:00:53;9.35;;;4.45;;
61383;SDS011;63511;49.346;8.798;2022-10-31T07:03:20;20.10;;;5.32;;
61383;SDS011;63511;49.346;8.798;2022-10-31T07:05:46;9.07;;;4.80;;
61383;SDS011;63511;49.346;8.798;2022-10-31T07:08:19;9.82;;;4.68;;
61383;SDS011;63511;49.346;8.798;2022-10-31T07:10:50;11.23;;;5.88;;
61383;SDS011;63511;49.346;8.798;2022-10-31T07:13:17;17.25;;;5.78;;
61383;SDS011;63511;49.346;8.798;2022-10-31T07:15:42;27.42;;;12.90;;
61383;SDS011;63511;49.346;8.798;2022-10-31T07:18:09;29.00;;;11.63;;
61383;SDS011;63511;49.346;8.798;2022-10-31T07:20:36;12.52;;;5.50;;
61383;SDS011;63511;49.346;8.798;2022-10-31T07:23:04;16.90;;;8.43;;
61383;SDS011;63511;49.346;8.798;2022-10-31T07:25:29;15.80;;;6.95;;
61383;SDS011;63511;49.346;8.798;2022-10-31T07:27:55;13.55;;;6.75;;
61383;SDS011;63511;49.346;8.798;2022-10-31T07:30:22;15.55;;;7.07;;
61383;SDS011;63511;49.346;8.798;2022-10-31T07:32:48;11.75;;;6.50;;
61383;SDS011;63511;49.346;8.798;2022-10-31T07:35:15;15.55;;;6.72;;
61383;SDS011;63511;49.346;8.798;2022-10-31T07:37:43;12.60;;;6.50;;
61383;SDS011;63511;49.346;8.798;2022-10-31T07:40:09;11.20;;;6.13;;
61383;SDS011;63511;49.346;8.798;2022-10-31T07:42:36;13.10;;;6.93;;
61383;SDS011;63511;49.346;8.798;2022-10-31T07:45:02;9.68;;;5.70;;
61383;SDS011;63511;49.346;8.798;2022-10-31T07:47:29;18.20;;;5.70;;
61383;SDS011;63511;49.346;8.798;2022-10-31T07:49:55;9.80;;;5.28;;
61383;SDS011;63511;49.346;8.798;2022-10-31T07:52:20;15.65;;;5.80;;
61383;SDS011;63511;49.346;8.798;2022-10-31T07:54:45;16.00;;;4.82;;
61383;SDS011;63511;49.346;8.798;2022-10-31T07:57:11;17.08;;;6.60;;
61383;SDS011;63511;49.346;8.798;2022-10-31T07:59:38;11.63;;;5.10;;
61383;SDS011;63511;49.346;8.798;2022-10-31T08:02:03;11.57;;;5.28;;
61383;SDS011;63511;49.346;8.798;2022-10-31T08:04:29;11.85;;;5.10;;
61383;SDS011;63511;49.346;8.798;2022-10-31T08:06:54;12.57;;;5.88;;
61383;SDS011;63511;49.346;8.798;2022-10-31T08:09:19;14.40;;;5.75;;
61383;SDS011;63511;49.346;8.798;2022-10-31T08:11:45;15.95;;;6.50;;
61383;SDS011;63511;49.346;8.798;2022-10-31T08:14:13;19.27;;;6.32;;
61383;SDS011;63511;49.346;8.798;2022-10-31T08:16:38;16.80;;;6.97;;
61383;SDS011;63511;49.346;8.798;2022-10-31T08:19:03;13.75;;;4.97;;
61383;SDS011;63511;49.346;8.798;2022-10-31T08:21:28;15.60;;;6.47;;
61383;SDS011;63511;49.346;8.798;2022-10-31T08:23:56;15.90;;;5.45;;
61383;SDS011;63511;49.346;8.798;2022-10-31T08:26:24;10.05;;;5.90;;
61383;SDS011;63511;49.346;8.798;2022-10-31T08:28:49;9.15;;;5.22;;
61383;SDS011;63511;49.346;8.798;2022-10-31T08:31:15;10.32;;;5.30;;
61383;SDS011;63511;49.346;8.798;2022-10-31T08:33:43;12.20;;;5.97;;
61383;SDS011;63511;49.346;8.798;2022-10-31T08:36:08;18.50;;;6.07;;
61383;SDS011;63511;49.346;8.798;2022-10-31T08:38:33;13.02;;;5.75;;
61383;SDS011;63511;49.346;8.798;2022-10-31T08:40:59;12.82;;;7.63;;
61383;SDS011;63511;49.346;8.798;2022-10-31T08:43:24;12.02;;;5.22;;
61383;SDS011;63511;49.346;8.798;2022-10-31T08:45:49;13.60;;;6.03;;
61383;SDS011;63511;49.346;8.798;2022-10-31T08:48:15;11.38;;;5.68;;
61383;SDS011;63511;49.346;8.798;2022-10-31T08:50:42;12.20;;;6.70;;
61383;SDS011;63511;49.346;8.798;2022-10-31T08:53:11;9.45;;;5.43;;
61383;SDS011;63511;49.346;8.798;2022-10-31T08:55:38;14.05;;;6.57;;
61383;SDS011;63511;49.346;8.798;2022-10-31T08:58:05;12.55;;;6.55;;
61383;SDS011;63511;49.346;8.798;2022-10-31T09:00:34;13.10;;;6.05;;
61383;SDS011;63511;49.346;8.798;2022-10-31T09:03:03;12.32;;;5.15;;
61383;SDS011;63511;49.346;8.798;2022-10-31T09:05:37;48.95;;;7.75;;
61383;SDS011;63511;49.346;8.798;2022-10-31T09:08:03;14.20;;;5.28;;
61383;SDS011;63511;49.346;8.798;2022-10-31T09:10:32;12.50;;;5.82;;
61383;SDS011;63511;49.346;8.798;2022-10-31T09:12:59;17.92;;;5.60;;
61383;SDS011;63511;49.346;8.798;2022-10-31T09:15:32;16.13;;;5.90;;
61383;SDS011;63511;49.346;8.798;2022-10-31T09:18:01;12.07;;;6.60;;
61383;SDS011;63511;49.346;8.798;2022-10-31T09:20:29;12.73;;;5.80;;
61383;SDS011;63511;49.346;8.798;2022-10-31T09:23:21;15.32;;;6.07;;
61383;SDS011;63511;49.346;8.798;2022-10-31T09:25:51;14.88;;;6.25;;
61383;SDS011;63511;49.346;8.798;2022-10-31T09:28:18;8.40;;;5.03;;
61383;SDS011;63511;49.346;8.798;2022-10-31T09:30:46;16.35;;;6.53;;
61383;SDS011;63511;49.346;8.798;2022-10-31T09:33:13;9.60;;;5.07;;
61383;SDS011;63511;49.346;8.798;2022-10-31T09:35:39;12.02;;;5.55;;
61383;SDS011;63511;49.346;8.798;2022-10-31T09:38:15;23.00;;;6.03;;
61383;SDS011;63511;49.346;8.798;2022-10-31T09:40:46;12.40;;;6.07;;
61383;SDS011;63511;49.346;8.798;2022-10-31T09:46:03;14.40;;;6.15;;
61383;SDS011;63511;49.346;8.798;2022-10-31T09:51:33;23.08;;;6.50;;
61383;SDS011;63511;49.346;8.798;2022-10-31T09:54:06;11.40;;;5.20;;
61383;SDS011;63511;49.346;8.798;2022-10-31T09:56:41;16.55;;;6.57;;
61383;SDS011;63511;49.346;8.798;2022-10-31T09:59:12;14.13;;;5.22;;
61383;SDS011;63511;49.346;8.798;2022-10-31T10:07:27;18.30;;;6.75;;
61383;SDS011;63511;49.346;8.798;2022-10-31T10:10:13;14.02;;;6.32;;
61383;SDS011;63511;49.346;8.798;2022-10-31T10:13:03;22.00;;;7.15;;
61383;SDS011;63511;49.346;8.798;2022-10-31T10:21:26;20.08;;;7.88;;
61383;SDS011;63511;49.346;8.798;2022-10-31T10:26:37;17.65;;;7.18;;
61383;SDS011;63511;49.346;8.798;2022-10-31T10:31:43;16.27;;;7.72;;
61383;SDS011;63511;49.346;8.798;2022-10-31T10:36:42;19.03;;;6.67;;
61383;SDS011;63511;49.346;8.798;2022-10-31T10:39:36;19.50;;;7.35;;
61383;SDS011;63511;49.346;8.798;2022-10-31T10:42:17;20.50;;;6.63;;
61383;SDS011;63511;49.346;8.798;2022-10-31T10:45:22;18.75;;;7.25;;
61383;SDS011;63511;49.346;8.798;2022-10-31T10:48:10;11.40;;;6.47;;
61383;SDS011;63511;49.346;8.798;2022-10-31T10:50:43;21.27;;;6.97;;
61383;SDS011;63511;49.346;8.798;2022-10-31T10:58:56;18.80;;;7.97;;
61383;SDS011;63511;49.346;8.798;2022-10-31T11:01:22;18.75;;;6.85;;
61383;SDS011;63511;49.346;8.798;2022-10-31T11:03:50;11.13;;;6.22;;
61383;SDS011;63511;49.346;8.798;2022-10-31T11:06:26;16.20;;;6.80;;
61383;SDS011;63511;49.346;8.798;2022-10-31T11:08:52;12.65;;;6.03;;
61383;SDS011;63511;49.346;8.798;2022-10-31T11:11:24;15.32;;;6.63;;
61383;SDS011;63511;49.346;8.798;2022-10-31T11:14:13;20.58;;;6.82;;
61383;SDS011;63511;49.346;8.798;2022-10-31T11:16:49;13.23;;;5.50;;
61383;SDS011;63511;49.346;8.798;2022-10-31T11:19:22;14.55;;;5.60;;
61383;SDS011;63511;49.346;8.798;2022-10-31T11:21:52;14.55;;;6.38;;
61383;SDS011;63511;49.346;8.798;2022-10-31T11:24:19;14.48;;;5.13;;
61383;SDS011;63511;49.346;8.798;2022-10-31T11:26:47;17.77;;;6.15;;
61383;SDS011;63511;49.346;8.798;2022-10-31T11:29:20;15.68;;;6.13;;
61383;SDS011;63511;49.346;8.798;2022-10-31T11:31:50;15.43;;;5.40;;
61383;SDS011;63511;49.346;8.798;2022-10-31T11:34:26;12.98;;;5.13;;
61383;SDS011;63511;49.346;8.798;2022-10-31T11:39:49;17.92;;;5.68;;
61383;SDS011;63511;49.346;8.798;2022-10-31T11:42:19;23.35;;;6.53;;
61383;SDS011;63511;49.346;8.798;2022-10-31T11:44:47;14.50;;;5.88;;
61383;SDS011;63511;49.346;8.798;2022-10-31T11:47:15;13.68;;;5.10;;
61383;SDS011;63511;49.346;8.798;2022-10-31T11:49:43;17.52;;;5.75;;
61383;SDS011;63511;49.346;8.798;2022-10-31T11:52:18;9.63;;;5.65;;
61383;SDS011;63511;49.346;8.798;2022-10-31T11:54:56;14.63;;;5.68;;
61383;SDS011;63511;49.346;8.798;2022-10-31T11:59:53;15.60;;;5.65;;
61383;SDS011;63511;49.346;8.798;2022-10-31T12:04:47;9.45;;;4.50;;
61383;SDS011;63511;49.346;8.798;2022-10-31T12:07:31;22.70;;;6.45;;
61383;SDS011;63511;49.346;8.798;2022-10-31T12:09:56;11.77;;;4.57;;
61383;SDS011;63511;49.346;8.798;2022-10-31T12:36:58;14.25;;;4.43;;
61383;SDS011;63511;49.346;8.798;2022-10-31T12:56:19;21.15;;;5.82;;
61383;SDS011;63511;49.346;8.798;2022-10-31T12:59:07;12.80;;;5.75;;
61383;SDS011;63511;49.346;8.798;2022-10-31T13:01:56;11.32;;;5.32;;
61383;SDS011;63511;49.346;8.798;2022-10-31T13:07:05;13.25;;;6.60;;
61383;SDS011;63511;49.346;8.798;2022-10-31T13:09:37;17.17;;;6.45;;
61383;SDS011;63511;49.346;8.798;2022-10-31T13:12:09;19.55;;;5.57;;
61383;SDS011;63511;49.346;8.798;2022-10-31T13:14:41;10.35;;;5.03;;
61383;SDS011;63511;49.346;8.798;2022-10-31T13:17:16;14.68;;;5.32;;
61383;SDS011;63511;49.346;8.798;2022-10-31T13:19:49;17.92;;;5.80;;
61383;SDS011;63511;49.346;8.798;2022-10-31T13:22:17;9.90;;;4.80;;
61383;SDS011;63511;49.346;8.798;2022-10-31T13:27:19;18.17;;;5.85;;
61383;SDS011;63511;49.346;8.798;2022-10-31T13:29:59;19.75;;;5.30;;
61383;SDS011;63511;49.346;8.798;2022-10-31T13:43:11;16.73;;;5.05;;
61383;SDS011;63511;49.346;8.798;2022-10-31T13:45:48;15.07;;;4.68;;
61383;SDS011;63511;49.346;8.798;2022-10-31T13:50:55;16.77;;;5.75;;
61383;SDS011;63511;49.346;8.798;2022-10-31T13:58:56;12.45;;;5.82;;
61383;SDS011;63511;49.346;8.798;2022-10-31T14:01:22;9.93;;;4.57;;
61383;SDS011;63511;49.346;8.798;2022-10-31T14:03:56;11.90;;;5.15;;
61383;SDS011;63511;49.346;8.798;2022-10-31T14:11:52;23.00;;;5.28;;
61383;SDS011;63511;49.346;8.798;2022-10-31T14:14:19;15.30;;;5.55;;
61383;SDS011;63511;49.346;8.798;2022-10-31T14:16:56;11.60;;;5.40;;
61383;SDS011;63511;49.346;8.798;2022-10-31T14:19:23;19.65;;;4.40;;
61383;SDS011;63511;49.346;8.798;2022-10-31T14:21:49;16.35;;;5.30;;
61383;SDS011;63511;49.346;8.798;2022-10-31T14:32:04;13.60;;;5.88;;
61383;SDS011;63511;49.346;8.798;2022-10-31T14:34:40;15.73;;;5.97;;
61383;SDS011;63511;49.346;8.798;2022-10-31T14:48:21;16.25;;;5.78;;
61383;SDS011;63511;49.346;8.798;2022-10-31T14:51:00;11.73;;;4.55;;
61383;SDS011;63511;49.346;8.798;2022-10-31T14:53:49;22.05;;;4.78;;
61383;SDS011;63511;49.346;8.798;2022-10-31T14:56:41;13.85;;;5.55;;
61383;SDS011;63511;49.346;8.798;2022-10-31T14:59:20;13.15;;;5.18;;
61383;SDS011;63511;49.346;8.798;2022-10-31T15:02:04;11.73;;;5.03;;
61383;SDS011;63511;49.346;8.798;2022-10-31T15:04:34;12.00;;;4.78;;
61383;SDS011;63511;49.346;8.798;2022-10-31T15:07:02;18.83;;;4.88;;
61383;SDS011;63511;49.346;8.798;2022-10-31T15:09:40;20.77;;;4.63;;
61383;SDS011;63511;49.346;8.798;2022-10-31T15:12:41;17.95;;;4.80;;
61383;SDS011;63511;49.346;8.798;2022-10-31T15:15:18;12.77;;;5.05;;
61383;SDS011;63511;49.346;8.798;2022-10-31T15:17:55;17.83;;;4.82;;
61383;SDS011;63511;49.346;8.798;2022-10-31T15:20:25;15.90;;;5.32;;
61383;SDS011;63511;49.346;8.798;2022-10-31T15:22:57;18.48;;;5.45;;
61383;SDS011;63511;49.346;8.798;2022-10-31T15:25:26;9.88;;;4.20;;
61383;SDS011;63511;49.346;8.798;2022-10-31T15:27:56;13.93;;;4.75;;
61383;SDS011;63511;49.346;8.798;2022-10-31T15:30:25;14.25;;;4.90;;
61383;SDS011;63511;49.346;8.798;2022-10-31T15:32:53;16.42;;;5.22;;
61383;SDS011;63511;49.346;8.798;2022-10-31T15:35:23;12.60;;;5.70;;
61383;SDS011;63511;49.346;8.798;2022-10-31T15:38:06;14.48;;;6.40;;
61383;SDS011;63511;49.346;8.798;2022-10-31T15:40:33;10.65;;;5.10;;
61383;SDS011;63511;49.346;8.798;2022-10-31T15:43:02;9.00;;;5.53;;
61383;SDS011;63511;49.346;8.798;2022-10-31T15:45:31;8.93;;;4.35;;
61383;SDS011;63511;49.346;8.798;2022-10-31T15:48:03;13.60;;;5.55;;
61383;SDS011;63511;49.346;8.798;2022-10-31T15:50:58;14.70;;;5.68;;
61383;SDS011;63511;49.346;8.798;2022-10-31T15:53:25;14.00;;;5.18;;
61383;SDS011;63511;49.346;8.798;2022-10-31T15:55:54;17.60;;;4.90;;
61383;SDS011;63511;49.346;8.798;2022-10-31T15:58:22;14.40;;;5.63;;
61383;SDS011;63511;49.346;8.798;2022-10-31T16:03:26;18.48;;;7.43;;
61383;SDS011;63511;49.346;8.798;2022-10-31T16:05:57;13.18;;;5.68;;
61383;SDS011;63511;49.346;8.798;2022-10-31T16:11:40;8.75;;;4.95;;
61383;SDS011;63511;49.346;8.798;2022-10-31T16:16:34;18.33;;;5.85;;
61383;SDS011;63511;49.346;8.798;2022-10-31T16:19:12;23.52;;;6.80;;
61383;SDS011;63511;49.346;8.798;2022-10-31T16:21:42;16.52;;;6.10;;
61383;SDS011;63511;49.346;8.798;2022-10-31T16:26:49;12.10;;;5.65;;
61383;SDS011;63511;49.346;8.798;2022-10-31T16:37:55;13.80;;;4.97;;
61383;SDS011;63511;49.346;8.798;2022-10-31T16:40:20;14.20;;;5.80;;
61383;SDS011;63511;49.346;8.798;2022-10-31T16:42:48;12.98;;;5.50;;
61383;SDS011;63511;49.346;8.798;2022-10-31T16:45:15;20.65;;;5.65;;
61383;SDS011;63511;49.346;8.798;2022-10-31T16:47:43;21.83;;;5.97;;
61383;SDS011;63511;49.346;8.798;2022-10-31T16:50:12;15.52;;;5.35;;
61383;SDS011;63511;49.346;8.798;2022-10-31T16:52:44;14.27;;;6.10;;
61383;SDS011;63511;49.346;8.798;2022-10-31T16:55:11;10.73;;;5.90;;
61383;SDS011;63511;49.346;8.798;2022-10-31T16:57:38;15.88;;;5.50;;
61383;SDS011;63511;49.346;8.798;2022-10-31T17:00:08;12.25;;;6.88;;
61383;SDS011;63511;49.346;8.798;2022-10-31T17:02:38;18.00;;;5.82;;
61383;SDS011;63511;49.346;8.798;2022-10-31T17:05:03;13.68;;;6.43;;
61383;SDS011;63511;49.346;8.798;2022-10-31T17:07:33;13.05;;;5.90;;
61383;SDS011;63511;49.346;8.798;2022-10-31T17:10:00;17.80;;;7.25;;
61383;SDS011;63511;49.346;8.798;2022-10-31T17:12:25;28.27;;;16.88;;
61383;SDS011;63511;49.346;8.798;2022-10-31T17:14:51;28.33;;;12.48;;
61383;SDS011;63511;49.346;8.798;2022-10-31T17:17:17;17.98;;;9.70;;
61383;SDS011;63511;49.346;8.798;2022-10-31T17:19:42;13.68;;;8.18;;
61383;SDS011;63511;49.346;8.798;2022-10-31T17:22:10;15.68;;;6.75;;
61383;SDS011;63511;49.346;8.798;2022-10-31T17:24:37;18.80;;;7.47;;
61383;SDS011;63511;49.346;8.798;2022-10-31T17:27:02;9.98;;;5.57;;
61383;SDS011;63511;49.346;8.798;2022-10-31T17:29:28;15.13;;;6.40;;
61383;SDS011;63511;49.346;8.798;2022-10-31T17:31:59;14.05;;;6.68;;
61383;SDS011;63511;49.346;8.798;2022-10-31T17:34:24;15.60;;;6.82;;
61383;SDS011;63511;49.346;8.798;2022-10-31T17:36:52;19.75;;;5.97;;
61383;SDS011;63511;49.346;8.798;2022-10-31T17:39:20;24.00;;;6.50;;
61383;SDS011;63511;49.346;8.798;2022-10-31T17:41:50;24.80;;;7.05;;
61383;SDS011;63511;49.346;8.798;2022-10-31T17:44:15;13.65;;;5.65;;
61383;SDS011;63511;49.346;8.798;2022-10-31T17:46:41;19.80;;;6.63;;
61383;SDS011;63511;49.346;8.798;2022-10-31T17:49:13;21.17;;;7.80;;
61383;SDS011;63511;49.346;8.798;2022-10-31T17:51:38;16.80;;;6.18;;
61383;SDS011;63511;49.346;8.798;2022-10-31T17:54:03;13.32;;;6.20;;